createdAt,value
2022-11-13T00:00:50.140Z,10.80
2022-11-13T00:06:11.918Z,10.80
2022-11-13T00:11:32.432Z,10.80
2022-11-13T00:16:52.474Z,10.80
2022-11-13T00:22:13.328Z,10.80
2022-11-13T00:27:33.404Z,10.80
2022-11-13T00:32:53.792Z,10.90
2022-11-13T00:38:15.323Z,10.80
2022-11-13T00:43:35.965Z,10.80
2022-11-13T00:48:56.288Z,10.80
2022-11-13T00:54:16.774Z,10.80
2022-11-13T00:59:37.204Z,10.90
2022-11-13T01:04:57.556Z,10.90
2022-11-13T01:10:18.066Z,10.80
2022-11-13T01:15:43.269Z,10.90
2022-11-13T01:21:09.508Z,10.90
2022-11-13T01:26:31.410Z,10.90
2022-11-13T01:31:52.007Z,10.90
2022-11-13T01:37:12.484Z,11.00
2022-11-13T01:42:33.602Z,10.90
2022-11-13T01:47:53.635Z,10.90
2022-11-13T01:53:14.273Z,11.00
2022-11-13T01:58:34.900Z,11.00
2022-11-13T02:03:55.310Z,11.00
2022-11-13T02:09:20.372Z,11.00
2022-11-13T02:14:43.765Z,11.00
2022-11-13T02:20:06.407Z,11.00
2022-11-13T02:25:29.268Z,11.00
2022-11-13T02:30:49.959Z,11.00
2022-11-13T02:36:11.893Z,10.90
2022-11-13T02:41:32.056Z,10.90
2022-11-13T02:46:52.711Z,10.90
2022-11-13T02:52:13.028Z,11.00
2022-11-13T02:57:34.131Z,11.00
2022-11-13T03:02:55.835Z,11.10
2022-11-13T03:08:16.774Z,11.10
2022-11-13T03:13:37.204Z,11.00
2022-11-13T03:18:57.515Z,11.00
2022-11-13T03:24:17.645Z,11.00
2022-11-13T03:29:38.027Z,11.00
2022-11-13T03:34:58.304Z,11.00
2022-11-13T03:40:18.948Z,10.90
2022-11-13T03:45:39.356Z,11.00
2022-11-13T03:51:00.131Z,11.00
2022-11-13T03:56:20.686Z,11.00
2022-11-13T04:01:41.209Z,11.00
2022-11-13T04:07:01.359Z,11.00
2022-11-13T04:12:21.638Z,11.00
2022-11-13T04:17:42.297Z,10.80
2022-11-13T04:23:07.770Z,10.90
2022-11-13T04:28:28.473Z,10.90
2022-11-13T04:33:49.863Z,10.80
2022-11-13T04:39:10.609Z,10.90
2022-11-13T04:44:31.155Z,10.80
2022-11-13T04:49:51.643Z,10.80
2022-11-13T04:55:12.425Z,10.80
2022-11-13T05:00:32.694Z,10.70
2022-11-13T05:05:53.056Z,10.70
2022-11-13T05:11:13.855Z,10.80
2022-11-13T05:16:36.086Z,10.80
2022-11-13T05:21:56.977Z,10.70
2022-11-13T05:27:17.935Z,10.80
2022-11-13T05:32:38.316Z,10.80
2022-11-13T05:38:03.715Z,10.80
2022-11-13T05:43:23.933Z,10.80
2022-11-13T05:48:44.997Z,10.70
2022-11-13T05:54:06.273Z,10.70
2022-11-13T05:59:26.835Z,10.80
2022-11-13T06:04:50.678Z,10.80
2022-11-13T06:10:13.217Z,10.60
2022-11-13T06:15:33.773Z,10.70
2022-11-13T06:20:54.148Z,10.80
2022-11-13T06:26:17.861Z,10.80
2022-11-13T06:31:38.094Z,10.80
2022-11-13T06:36:59.704Z,10.70
2022-11-13T06:42:21.616Z,10.70
2022-11-13T06:47:41.933Z,10.80
2022-11-13T06:53:02.487Z,10.80
2022-11-13T06:58:22.801Z,10.70
2022-11-13T07:03:43.542Z,10.70
2022-11-13T07:09:03.752Z,10.80
2022-11-13T07:14:24.200Z,10.80
2022-11-13T07:19:44.655Z,10.80
2022-11-13T07:25:05.649Z,10.80
2022-11-13T07:30:26.394Z,10.80
2022-11-13T07:35:46.613Z,10.90
2022-11-13T07:41:07.376Z,10.80
2022-11-13T07:46:27.540Z,10.70
2022-11-13T07:51:47.964Z,10.70
2022-11-13T07:57:08.989Z,10.80
2022-11-13T08:02:29.493Z,10.80
2022-11-13T08:07:51.611Z,10.90
2022-11-13T08:13:12.074Z,10.70
2022-11-13T08:18:33.253Z,10.90
2022-11-13T08:23:53.508Z,10.90
2022-11-13T08:29:13.798Z,10.90
2022-11-13T08:34:34.321Z,10.80
2022-11-13T08:39:54.879Z,10.70
2022-11-13T08:45:15.443Z,10.90
2022-11-13T08:50:35.780Z,10.90
2022-11-13T08:56:01.145Z,10.80
2022-11-13T09:01:22.797Z,11.00
2022-11-13T09:06:43.376Z,11.10
2022-11-13T09:12:04.293Z,11.20
2022-11-13T09:17:24.645Z,11.20
2022-11-13T09:22:44.978Z,11.20
2022-11-13T09:28:06.870Z,11.10
2022-11-13T09:33:27.309Z,11.30
2022-11-13T09:38:47.722Z,11.30
2022-11-13T09:44:42.917Z,11.30
2022-11-13T09:50:31.602Z,11.40
2022-11-13T09:56:06.259Z,11.60
2022-11-13T10:01:51.040Z,11.50
2022-11-13T10:07:32.438Z,11.50
2022-11-13T10:12:56.325Z,11.50
2022-11-13T10:18:31.204Z,11.70
2022-11-13T10:23:57.010Z,11.80
2022-11-13T10:29:19.897Z,11.80
2022-11-13T10:34:41.166Z,11.80
2022-11-13T10:40:01.141Z,11.60
2022-11-13T10:45:22.983Z,11.60
2022-11-13T10:50:43.133Z,11.80
2022-11-13T10:56:25.301Z,11.90
2022-11-13T11:01:49.469Z,11.90
2022-11-13T11:07:21.538Z,11.70
2022-11-13T11:12:42.915Z,11.90
2022-11-13T11:18:07.826Z,11.80
2022-11-13T11:23:58.096Z,11.60
2022-11-13T11:29:27.147Z,11.90
2022-11-13T11:35:13.146Z,12.00
2022-11-13T11:40:40.382Z,11.80
2022-11-13T11:46:00.872Z,11.60
2022-11-13T11:51:34.744Z,11.50
2022-11-13T11:57:06.403Z,11.80
2022-11-13T12:02:26.966Z,11.70
2022-11-13T12:07:59.794Z,11.40
2022-11-13T12:13:31.907Z,11.70
2022-11-13T12:19:24.874Z,11.90
2022-11-13T12:25:27.657Z,11.60
2022-11-13T12:31:12.391Z,11.70
2022-11-13T12:36:33.553Z,12.00
2022-11-13T12:42:00.464Z,12.00
2022-11-13T12:47:21.014Z,11.90
2022-11-13T12:52:41.614Z,11.70
2022-11-13T12:58:20.451Z,11.90
2022-11-13T13:04:17.835Z,12.20
2022-11-13T13:09:59.949Z,12.40
2022-11-13T13:15:31.684Z,12.80
2022-11-13T13:21:04.434Z,12.80
2022-11-13T13:26:28.781Z,12.70
2022-11-13T13:32:01.324Z,13.10
2022-11-13T13:37:30.530Z,12.90
2022-11-13T13:43:27.784Z,13.10
2022-11-13T13:48:50.038Z,12.80
2022-11-13T13:54:18.540Z,12.20
2022-11-13T13:59:38.655Z,11.90
2022-11-13T14:04:59.270Z,11.80
2022-11-13T14:10:22.256Z,11.70
2022-11-13T14:15:42.454Z,11.80
2022-11-13T14:21:12.621Z,11.70
2022-11-13T14:26:33.553Z,11.60
2022-11-13T14:31:54.297Z,11.50
2022-11-13T14:37:14.333Z,11.40
2022-11-13T14:42:37.954Z,11.20
2022-11-13T14:48:17.228Z,11.20
2022-11-13T14:53:39.565Z,11.10
2022-11-13T14:59:24.702Z,11.00
2022-11-13T15:04:45.027Z,10.80
2022-11-13T15:10:06.451Z,10.70
2022-11-13T15:15:30.180Z,10.60
2022-11-13T15:20:50.650Z,10.50
2022-11-13T15:26:12.178Z,10.40
2022-11-13T15:31:44.726Z,10.30
2022-11-13T15:37:15.944Z,10.20
2022-11-13T15:42:36.718Z,10.10
2022-11-13T15:47:58.029Z,10.00
2022-11-13T15:53:18.316Z,9.90
2022-11-13T15:58:38.934Z,9.80
2022-11-13T16:04:02.252Z,9.70
2022-11-13T16:09:22.559Z,9.60
2022-11-13T16:14:43.006Z,9.50
2022-11-13T16:20:04.487Z,9.40
2022-11-13T16:25:25.189Z,9.30
2022-11-13T16:30:46.382Z,9.20
2022-11-13T16:36:17.557Z,9.10
2022-11-13T16:41:37.990Z,9.00
2022-11-13T16:46:58.453Z,8.90
2022-11-13T16:52:19.162Z,8.90
2022-11-13T16:57:39.971Z,8.70
2022-11-13T17:03:00.402Z,8.70
2022-11-13T17:08:22.012Z,8.70
2022-11-13T17:13:42.227Z,8.60
2022-11-13T17:19:02.766Z,8.50
2022-11-13T17:24:23.379Z,8.40
2022-11-13T17:29:44.177Z,8.40
2022-11-13T17:35:06.011Z,8.30
2022-11-13T17:40:26.227Z,8.20
2022-11-13T17:45:51.032Z,8.30
2022-11-13T17:51:13.752Z,8.30
2022-11-13T17:56:35.358Z,8.40
2022-11-13T18:01:55.596Z,8.40
2022-11-13T18:07:15.997Z,8.40
2022-11-13T18:12:36.358Z,8.40
2022-11-13T18:17:56.637Z,8.50
2022-11-13T18:23:18.173Z,8.50
2022-11-13T18:28:40.029Z,8.40
2022-11-13T18:34:02.873Z,8.40
2022-11-13T18:39:23.164Z,8.30
2022-11-13T18:44:44.086Z,8.20
2022-11-13T18:50:04.868Z,8.30
2022-11-13T18:55:25.326Z,8.20
2022-11-13T19:00:45.790Z,8.20
2022-11-13T19:06:08.196Z,8.10
2022-11-13T19:11:30.348Z,8.20
2022-11-13T19:16:50.659Z,8.10
2022-11-13T19:22:11.119Z,8.20
2022-11-13T19:27:31.410Z,8.20
2022-11-13T19:32:51.898Z,8.20
2022-11-13T19:38:12.288Z,8.30
2022-11-13T19:43:34.437Z,8.30
2022-11-13T19:48:54.631Z,8.20
2022-11-13T19:54:16.582Z,8.10
2022-11-13T19:59:36.993Z,8.10
2022-11-13T20:04:57.402Z,8.20
2022-11-13T20:10:18.053Z,8.10
2022-11-13T20:15:38.445Z,8.10
2022-11-13T20:20:59.324Z,7.90
2022-11-13T20:26:19.699Z,7.80
2022-11-13T20:31:40.082Z,7.80
2022-11-13T20:37:00.689Z,7.80
2022-11-13T20:42:21.083Z,7.80
2022-11-13T20:47:41.553Z,7.80
2022-11-13T20:53:02.257Z,7.80
2022-11-13T20:58:22.392Z,7.70
2022-11-13T21:03:44.851Z,7.60
2022-11-13T21:09:05.609Z,7.50
2022-11-13T21:14:26.102Z,7.50
2022-11-13T21:19:46.435Z,7.40
2022-11-13T21:25:07.305Z,7.30
2022-11-13T21:30:27.460Z,7.30
2022-11-13T21:35:48.460Z,7.30
2022-11-13T21:41:26.955Z,7.20
2022-11-13T21:46:47.177Z,7.20
2022-11-13T21:52:07.724Z,7.30
2022-11-13T21:57:28.127Z,7.20
2022-11-13T22:02:48.539Z,7.20
2022-11-13T22:08:09.017Z,7.20
2022-11-13T22:13:30.870Z,7.20
2022-11-13T22:18:55.854Z,7.20
2022-11-13T22:24:16.446Z,7.20
2022-11-13T22:29:36.919Z,7.20
2022-11-13T22:34:57.344Z,7.30
2022-11-13T22:40:17.779Z,7.30
2022-11-13T22:45:38.295Z,7.30
2022-11-13T22:51:16.822Z,7.40
2022-11-13T22:56:38.521Z,7.40
2022-11-13T23:01:58.832Z,7.30
2022-11-13T23:07:19.285Z,7.30
2022-11-13T23:12:39.605Z,7.30
2022-11-13T23:18:00.027Z,7.20
2022-11-13T23:23:20.470Z,7.20
2022-11-13T23:28:41.543Z,7.20
2022-11-13T23:34:03.100Z,7.30
2022-11-13T23:39:23.392Z,7.30
2022-11-13T23:44:43.749Z,7.30
2022-11-13T23:50:04.454Z,7.20
2022-11-13T23:55:24.866Z,7.20
